Time;durP1;ratioP1;P1;durP2;ratioP2;P2;SDS_P1;SDS_P2;PMS_P1;PMS_P2;Temp;Humidity;BMP_temperature;BMP_pressure;BME280_temperature;BME280_humidity;BME280_pressure;Samples;Min_cycle;Max_cycle;Signal;HPM_P1;HPM_P2
2022/03/09 00:02:21;;;;;;;2.55;1.70;;;;;;;18.99;48.53;99792.97;4956398;29;20027;-91
2022/03/09 00:04:48;;;;;;;2.47;1.55;;;;;;;19.00;48.35;99789.38;4957073;29;20027;-92
2022/03/09 00:07:13;;;;;;;2.05;1.30;;;;;;;19.00;48.12;99790.25;4973119;29;20046;-91
2022/03/09 00:09:39;;;;;;;2.40;1.33;;;;;;;18.99;48.21;99793.81;4955758;29;20063;-91
2022/03/09 00:12:06;;;;;;;2.55;1.50;;;;;;;19.00;48.28;99795.53;4972584;28;20032;-91
2022/03/09 00:14:31;;;;;;;1.70;1.15;;;;;;;18.99;48.12;99788.50;4940268;29;20117;-91
2022/03/09 00:16:57;;;;;;;2.28;1.33;;;;;;;18.98;48.23;99786.81;4956103;29;20047;-92
2022/03/09 00:19:24;;;;;;;2.63;1.42;;;;;;;18.97;48.25;99790.38;4957681;29;20014;-92
2022/03/09 00:21:50;;;;;;;2.85;1.60;;;;;;;18.96;48.18;99788.66;4955915;29;20438;-91
2022/03/09 00:24:16;;;;;;;2.70;1.30;;;;;;;18.97;48.42;99790.38;4955306;29;20027;-91
2022/03/09 00:26:42;;;;;;;1.90;1.20;;;;;;;18.97;48.34;99784.22;4954595;29;20027;-91
2022/03/09 00:29:08;;;;;;;2.70;1.40;;;;;;;18.97;48.47;99785.09;4938981;29;20484;-91
2022/03/09 00:31:33;;;;;;;2.67;1.42;;;;;;;18.93;48.38;99788.81;4955065;28;20038;-91
2022/03/09 00:33:59;;;;;;;2.70;1.40;;;;;;;18.92;48.60;99787.09;4955032;29;20063;-91
2022/03/09 00:36:25;;;;;;;2.50;1.48;;;;;;;18.93;48.40;99783.50;4940934;29;20050;-92
2022/03/09 00:38:50;;;;;;;2.50;1.52;;;;;;;18.94;48.31;99793.19;4954248;29;20128;-91
2022/03/09 00:41:16;;;;;;;1.98;1.10;;;;;;;18.93;48.38;99783.50;4954926;29;20454;-91
2022/03/09 00:43:42;;;;;;;3.42;1.45;;;;;;;18.94;48.33;99793.19;4954480;29;20058;-91
2022/03/09 00:46:07;;;;;;;1.60;1.05;;;;;;;18.93;48.27;99788.81;4956599;29;20023;-92
2022/03/09 00:48:34;;;;;;;2.35;1.35;;;;;;;18.91;48.34;99785.38;4971362;28;20098;-92
2022/03/09 00:51:00;;;;;;;2.17;1.23;;;;;;;18.92;48.31;99792.38;4957844;29;20034;-91
2022/03/09 00:53:26;;;;;;;2.22;1.38;;;;;;;18.92;48.54;99793.25;4955350;29;20457;-92
2022/03/09 00:55:51;;;;;;;2.83;1.50;;;;;;;18.91;48.37;99798.59;4955090;29;20034;-91
2022/03/09 00:58:17;;;;;;;1.95;1.23;;;;;;;18.89;48.32;99800.47;4954573;29;20097;-92
2022/03/09 01:00:42;;;;;;;2.60;1.40;;;;;;;18.91;48.41;99802.13;4971527;29;20047;-91
2022/03/09 01:03:08;;;;;;;2.22;1.23;;;;;;;18.90;48.22;99794.25;4953890;29;20068;-91
2022/03/09 01:05:34;;;;;;;2.55;1.40;;;;;;;18.89;48.40;99801.31;4970680;29;20031;-92
2022/03/09 01:07:59;;;;;;;2.35;1.27;;;;;;;18.88;48.14;99798.72;4955792;29;20031;-91
2022/03/09 01:10:25;;;;;;;2.33;1.30;;;;;;;18.86;48.37;99798.84;4954091;29;20369;-91
2022/03/09 01:12:51;;;;;;;2.25;1.15;;;;;;;18.86;48.22;99790.91;4954858;29;20033;-92
2022/03/09 01:15:17;;;;;;;1.88;1.27;;;;;;;18.87;48.26;99789.09;4955817;29;20042;-92
2022/03/09 01:17:43;;;;;;;2.88;1.50;;;;;;;18.87;48.15;99789.09;4956181;29;20054;-92
2022/03/09 01:20:09;;;;;;;2.13;1.20;;;;;;;18.85;48.30;99788.31;4955651;29;20335;-93
2022/03/09 01:22:35;;;;;;;1.80;1.30;;;;;;;18.85;48.32;99785.69;4956383;29;20027;-93
2022/03/09 01:25:00;;;;;;;1.65;1.13;;;;;;;18.85;48.42;99783.03;4956652;29;20034;-92
2022/03/09 01:27:26;;;;;;;2.33;1.00;;;;;;;18.84;48.45;99782.16;4959357;28;20027;-92
2022/03/09 01:29:52;;;;;;;2.65;1.50;;;;;;;18.84;48.42;99779.53;4956456;29;20090;-91
2022/03/09 01:32:19;;;;;;;1.95;1.20;;;;;;;18.85;48.11;99780.38;4956428;29;20035;-92
2022/03/09 01:34:45;;;;;;;2.50;1.20;;;;;;;18.83;48.32;99776.97;4972710;29;20032;-92
2022/03/09 01:37:11;;;;;;;3.10;1.70;;;;;;;18.83;48.31;99763.75;4955816;29;20090;-92
2022/03/09 01:39:37;;;;;;;2.45;1.52;;;;;;;18.82;48.43;99760.22;4956538;29;20067;-92
2022/03/09 01:42:03;;;;;;;2.20;1.40;;;;;;;18.81;48.33;99763.81;4956110;29;20027;-92
2022/03/09 01:44:29;;;;;;;2.58;1.48;;;;;;;18.81;48.24;99760.31;4958438;29;20079;-93
2022/03/09 01:46:55;;;;;;;2.53;1.60;;;;;;;18.82;48.20;99759.38;4962344;29;20023;-91
2022/03/09 01:49:23;;;;;;;2.45;1.75;;;;;;;18.79;48.00;99755.94;4960788;29;20051;-91
2022/03/09 01:51:53;;;;;;;3.08;1.58;;;;;;;18.78;48.14;99756.88;4959651;28;20086;-92
2022/03/09 01:54:20;;;;;;;3.15;1.80;;;;;;;18.78;48.11;99748.09;4959039;29;20086;-92
2022/03/09 01:56:47;;;;;;;2.83;1.42;;;;;;;18.77;48.45;99747.25;4959189;29;20096;-92
2022/03/09 01:59:17;;;;;;;2.40;1.50;;;;;;;18.75;48.28;99748.25;4959855;29;20042;-91
2022/03/09 02:01:44;;;;;;;2.90;1.77;;;;;;;18.76;48.13;99750.81;4960906;29;20027;-92
2022/03/09 02:04:11;;;;;;;2.25;1.35;;;;;;;18.74;48.38;99747.38;4959727;29;20027;-92
2022/03/09 02:06:38;;;;;;;2.47;1.73;;;;;;;18.74;48.32;99746.53;4976138;29;20047;-92
2022/03/09 02:11:52;;;;;;;3.38;1.75;;;;;;;18.73;48.52;99744.78;4977962;29;20091;-92
2022/03/09 02:14:31;;;;;;;3.00;1.60;;;;;;;18.71;48.27;99747.53;4962510;29;20039;-92
2022/03/09 02:17:00;;;;;;;3.30;1.88;;;;;;;18.70;48.42;99745.78;4960464;29;20069;-92
2022/03/09 02:19:26;;;;;;;3.10;1.77;;;;;;;18.70;48.06;99751.06;4960869;29;20027;-91
2022/03/09 02:21:59;;;;;;;2.80;1.70;;;;;;;18.70;48.19;99739.66;4962735;29;20054;-91
2022/03/09 02:24:25;;;;;;;2.47;1.40;;;;;;;18.68;48.47;99745.03;4963673;29;20050;-92
2022/03/09 02:26:51;;;;;;;3.00;1.70;;;;;;;18.70;48.44;99740.50;4963958;29;20090;-92
2022/03/09 02:29:16;;;;;;;2.30;1.35;;;;;;;18.67;48.56;99738.03;4962998;29;20396;-92
2022/03/09 02:31:42;;;;;;;2.33;1.30;;;;;;;18.68;48.41;99742.38;4963439;29;20046;-92
2022/03/09 02:34:08;;;;;;;2.45;1.35;;;;;;;18.67;48.33;99734.50;4980009;29;20011;-92
2022/03/09 02:36:34;;;;;;;2.28;1.33;;;;;;;18.68;48.06;99737.09;4963465;28;20031;-92
2022/03/09 02:38:59;;;;;;;2.55;1.45;;;;;;;18.66;48.21;99738.97;4963199;29;20031;-92
2022/03/09 02:41:28;;;;;;;1.73;1.20;;;;;;;18.67;48.21;99735.38;4979349;29;20027;-92
2022/03/09 02:43:54;;;;;;;1.95;1.30;;;;;;;18.66;48.34;99733.66;4962787;29;20050;-92
2022/03/09 02:46:20;;;;;;;1.90;1.13;;;;;;;18.65;48.40;99731.97;4961455;29;20065;-92
2022/03/09 02:48:49;;;;;;;1.92;1.20;;;;;;;18.65;48.30;99731.97;4962266;29;20059;-92
2022/03/09 02:51:15;;;;;;;2.17;1.33;;;;;;;18.65;48.24;99729.31;4963155;29;20038;-93
2022/03/09 02:53:40;;;;;;;2.63;1.35;;;;;;;18.63;48.41;99728.50;4963577;29;20042;-92
2022/03/09 02:56:06;;;;;;;2.28;1.10;;;;;;;18.64;48.25;99730.22;4962011;29;20034;-91
2022/03/09 02:58:32;;;;;;;1.90;1.20;;;;;;;18.62;48.16;99726.81;4962698;29;20098;-92
2022/03/09 03:00:57;;;;;;;2.38;1.63;;;;;;;18.62;48.37;99732.09;4962074;29;20031;-92
2022/03/09 03:03:23;;;;;;;2.35;1.38;;;;;;;18.61;48.29;99730.38;4961834;29;20100;-91
2022/03/09 03:05:49;;;;;;;2.20;1.38;;;;;;;18.62;48.04;99722.38;4962367;29;20075;-92
2022/03/09 03:08:14;;;;;;;3.00;1.33;;;;;;;18.59;48.26;99721.69;4962055;29;20039;-91
2022/03/09 03:10:41;;;;;;;2.30;1.30;;;;;;;18.59;48.21;99721.69;4961450;29;20027;-91
2022/03/09 03:13:07;;;;;;;2.55;1.40;;;;;;;18.60;48.34;99718.09;4959983;29;20031;-92
2022/03/09 03:15:32;;;;;;;3.10;1.70;;;;;;;18.59;47.92;99721.69;4960197;28;20096;-92
2022/03/09 03:17:59;;;;;;;2.25;1.27;;;;;;;18.58;48.07;99709.38;4961418;29;20042;-92
2022/03/09 03:20:24;;;;;;;2.35;1.30;;;;;;;18.57;47.99;99712.94;4960972;29;20377;-92
2022/03/09 03:22:51;;;;;;;2.33;1.40;;;;;;;18.56;48.27;99711.25;4978361;29;20019;-92
2022/03/09 03:25:17;;;;;;;3.03;1.60;;;;;;;18.54;48.15;99707.81;4961641;29;20042;-91
2022/03/09 03:27:42;;;;;;;2.17;1.35;;;;;;;18.55;48.09;99707.72;4961250;29;20047;-92
2022/03/09 03:30:09;;;;;;;2.17;1.40;;;;;;;18.54;48.09;99713.09;4960706;29;20063;-91
2022/03/09 03:32:34;;;;;;;2.20;1.20;;;;;;;18.51;48.21;99707.00;4945715;29;20047;-92
2022/03/09 03:35:00;;;;;;;1.75;1.20;;;;;;;18.51;47.88;99712.31;4977267;28;20027;-92
2022/03/09 03:37:25;;;;;;;2.10;1.08;;;;;;;18.51;48.12;99709.66;4945684;29;20031;-92
2022/03/09 03:39:51;;;;;;;2.50;1.48;;;;;;;18.50;48.24;99713.22;4960159;29;20027;-92
2022/03/09 03:42:17;;;;;;;1.52;1.33;;;;;;;18.50;48.19;99717.69;4944568;29;20031;-92
2022/03/09 03:44:42;;;;;;;2.42;1.17;;;;;;;18.49;48.00;99721.22;4959474;29;20015;-92
2022/03/09 03:47:11;;;;;;;1.80;1.20;;;;;;;18.47;48.08;99715.16;4976099;29;20098;-92
2022/03/09 03:49:37;;;;;;;2.78;1.35;;;;;;;18.47;48.13;99723.97;4928214;29;20062;-92
2022/03/09 03:52:03;;;;;;;1.92;1.17;;;;;;;18.47;48.14;99723.97;4958444;29;20027;-91
2022/03/09 03:54:28;;;;;;;2.42;1.48;;;;;;;18.48;47.73;99720.38;4960204;29;20091;-91
2022/03/09 03:56:54;;;;;;;2.03;1.10;;;;;;;18.47;47.90;99723.09;4975471;29;20027;-92
2022/03/09 03:59:19;;;;;;;2.20;1.27;;;;;;;18.46;48.07;99716.94;4945000;29;20124;-92
2022/03/09 04:01:45;;;;;;;2.17;1.30;;;;;;;18.46;47.68;99722.22;4958684;28;20058;-91
2022/03/09 04:04:11;;;;;;;1.88;1.05;;;;;;;18.45;48.00;99725.78;4959206;29;20083;-92
2022/03/09 04:06:37;;;;;;;1.95;1.15;;;;;;;18.44;48.02;99728.53;4975759;28;20023;-92
2022/03/09 04:09:03;;;;;;;2.75;1.30;;;;;;;18.43;47.94;99732.94;4959667;29;20099;-91
2022/03/09 04:11:29;;;;;;;2.22;1.17;;;;;;;18.44;48.03;99737.31;4959688;29;20027;-93
2022/03/09 04:13:54;;;;;;;2.13;1.30;;;;;;;18.43;48.08;99722.38;4944145;29;20480;-92
2022/03/09 04:16:21;;;;;;;1.70;1.00;;;;;;;18.43;48.10;99724.16;4959911;29;20027;-92
2022/03/09 04:18:47;;;;;;;2.20;1.33;;;;;;;18.43;47.77;99724.16;4959195;29;20030;-92
2022/03/09 04:21:12;;;;;;;1.27;0.80;;;;;;;18.42;47.79;99731.25;4959797;29;20031;-92
2022/03/09 04:23:38;;;;;;;1.80;1.00;;;;;;;18.42;47.94;99731.25;4961332;28;20031;-91
2022/03/09 04:26:06;;;;;;;2.45;1.08;;;;;;;18.40;47.74;99730.44;4960897;29;20439;-92
2022/03/09 04:28:33;;;;;;;1.60;1.15;;;;;;;18.41;47.78;99733.94;4961278;29;20015;-91
2022/03/09 04:30:59;;;;;;;1.85;1.00;;;;;;;18.41;47.69;99734.81;4976949;29;20041;-92
2022/03/09 04:33:25;;;;;;;1.92;1.08;;;;;;;18.38;48.00;99727.00;4944062;29;20035;-91
2022/03/09 04:35:51;;;;;;;1.45;1.02;;;;;;;18.38;48.13;99724.38;4959170;29;20019;-92
2022/03/09 04:38:17;;;;;;;1.63;0.90;;;;;;;18.38;47.80;99729.66;4944337;29;20527;-91
2022/03/09 04:40:42;;;;;;;1.70;1.20;;;;;;;18.37;47.97;99717.38;4959012;29;20027;-91
2022/03/09 04:43:08;;;;;;;1.48;0.93;;;;;;;18.36;47.52;99720.97;4944115;29;20027;-92
2022/03/09 04:45:34;;;;;;;2.17;1.02;;;;;;;18.35;47.86;99717.44;4959380;28;20031;-91
2022/03/09 04:48:00;;;;;;;2.13;1.40;;;;;;;18.33;47.61;99715.81;4959055;29;20103;-92
2022/03/09 04:50:26;;;;;;;2.03;1.27;;;;;;;18.34;47.79;99706.94;4959536;29;20023;-92
2022/03/09 04:52:51;;;;;;;2.10;1.27;;;;;;;18.33;47.63;99721.09;4927674;29;20071;-93
2022/03/09 04:55:17;;;;;;;2.40;0.88;;;;;;;18.31;47.57;99722.94;4959570;29;20532;-91
2022/03/09 04:57:43;;;;;;;2.00;1.17;;;;;;;18.31;47.97;99725.59;4959009;29;20100;-92
2022/03/09 05:00:09;;;;;;;1.98;1.20;;;;;;;18.30;47.71;99721.25;4960666;28;20351;-92
2022/03/09 05:02:35;;;;;;;1.80;1.10;;;;;;;18.29;47.77;99719.50;4958693;29;20062;-92
2022/03/09 05:05:04;;;;;;;2.05;1.05;;;;;;;18.30;47.92;99726.53;4943877;29;20027;-92
2022/03/09 05:07:30;;;;;;;2.13;1.17;;;;;;;18.28;47.61;99723.06;4944200;29;20027;-92
2022/03/09 05:09:55;;;;;;;1.80;1.00;;;;;;;18.29;47.58;99735.34;4942862;29;20066;-92
2022/03/09 05:12:22;;;;;;;1.70;1.10;;;;;;;18.27;47.70;99716.94;4975128;29;20019;-92
2022/03/09 05:14:47;;;;;;;1.40;0.80;;;;;;;18.28;47.63;99728.34;4958555;29;20034;-91
2022/03/09 05:17:13;;;;;;;1.52;1.00;;;;;;;18.27;47.53;99726.66;4958107;29;20030;-92
2022/03/09 05:19:38;;;;;;;1.60;0.93;;;;;;;18.25;47.52;99719.66;4945557;29;20011;-92
2022/03/09 05:22:04;;;;;;;1.73;0.80;;;;;;;18.25;47.90;99719.66;4964136;28;20023;-92
2022/03/09 05:24:30;;;;;;;2.28;1.23;;;;;;;18.23;47.86;99718.88;4963812;29;20023;-92
2022/03/09 05:26:58;;;;;;;1.55;1.00;;;;;;;18.25;47.74;99724.94;4964273;29;20042;-91
2022/03/09 05:29:24;;;;;;;1.98;1.13;;;;;;;18.26;47.72;99723.16;4948397;29;20043;-91
2022/03/09 05:31:50;;;;;;;1.63;1.00;;;;;;;18.25;47.52;99724.94;4933079;29;20083;-92
2022/03/09 05:34:17;;;;;;;1.88;0.90;;;;;;;18.25;47.87;99730.22;4963963;29;20023;-92
2022/03/09 05:36:42;;;;;;;1.75;0.98;;;;;;;18.23;47.75;99731.22;4948246;29;20023;-92
2022/03/09 05:39:08;;;;;;;1.45;0.80;;;;;;;18.23;47.67;99726.81;4948381;29;20030;-92
2022/03/09 05:41:34;;;;;;;1.17;0.90;;;;;;;18.23;47.82;99726.81;4963765;29;20090;-92
2022/03/09 05:44:00;;;;;;;1.55;0.82;;;;;;;18.23;47.69;99731.22;4949200;29;20030;-92
2022/03/09 05:46:26;;;;;;;1.77;0.90;;;;;;;18.21;47.84;99738.34;4963926;29;20027;-92
2022/03/09 05:48:52;;;;;;;1.30;0.90;;;;;;;18.19;47.88;99730.50;4963701;29;20035;-92
2022/03/09 05:51:18;;;;;;;1.42;0.80;;;;;;;18.21;47.68;99731.28;4947783;29;20035;-92
2022/03/09 05:53:47;;;;;;;1.27;0.82;;;;;;;18.19;47.56;99730.50;4932442;29;20053;-92
2022/03/09 05:56:14;;;;;;;1.25;0.90;;;;;;;18.18;47.69;99736.72;4963466;29;20031;-91
2022/03/09 05:58:40;;;;;;;1.02;0.70;;;;;;;18.18;47.48;99739.34;4948097;29;20083;-91
2022/03/09 06:01:06;;;;;;;2.30;1.02;;;;;;;18.17;47.64;99735.00;4947857;29;20067;-92
2022/03/09 06:03:32;;;;;;;2.15;0.90;;;;;;;18.19;47.81;99740.19;4964383;29;20023;-92
2022/03/09 06:05:58;;;;;;;2.08;0.90;;;;;;;18.15;47.94;99731.56;4949429;28;20043;-92
2022/03/09 06:08:25;;;;;;;2.13;1.23;;;;;;;18.15;47.85;99734.19;4964744;29;20079;-92
2022/03/09 06:11:11;;;;;;;1.63;0.88;;;;;;;18.16;47.52;99730.63;4954756;28;20071;-91
2022/03/09 06:13:38;;;;;;;1.50;1.00;;;;;;;18.15;47.83;99728.06;4949315;29;20027;-92
2022/03/09 06:16:05;;;;;;;1.40;0.93;;;;;;;18.14;47.66;99732.47;4981305;29;20052;-92
2022/03/09 06:18:54;;;;;;;1.50;0.77;;;;;;;18.15;47.97;99733.34;4964570;29;20475;-91
2022/03/09 06:21:41;;;;;;;1.33;0.90;;;;;;;18.14;48.05;99731.63;4981481;28;20011;-92
2022/03/09 06:24:07;;;;;;;;;;;;;;;18.14;47.84;99735.13;4964637;29;20027;-92
2022/03/09 06:26:34;;;;;;;1.30;0.90;;;;;;;18.14;47.71;99737.75;4965059;29;19981;-92
2022/03/09 06:29:00;;;;;;;1.38;0.77;;;;;;;18.13;47.72;99730.78;4964431;29;20008;-92
2022/03/09 06:31:31;;;;;;;1.63;1.00;;;;;;;18.12;47.75;99731.72;4963826;29;20388;-92
2022/03/09 06:33:58;;;;;;;1.17;0.85;;;;;;;18.11;48.15;99736.13;4949000;29;20043;-92
2022/03/09 06:36:24;;;;;;;1.38;0.80;;;;;;;18.12;48.04;99734.34;4964380;29;20111;-92
2022/03/09 06:38:50;;;;;;;1.35;0.80;;;;;;;18.11;48.04;99732.59;4981355;29;20033;-93
2022/03/09 06:41:18;;;;;;;0.75;0.60;;;;;;;18.10;48.09;99738.81;4949413;29;20035;-92
2022/03/09 06:43:50;;;;;;;1.70;0.90;;;;;;;18.11;47.99;99737.88;4949886;29;20027;-93
2022/03/09 06:46:18;;;;;;;1.08;0.82;;;;;;;18.11;47.94;99737.88;4964652;28;20043;-92
2022/03/09 06:48:54;;;;;;;1.63;0.80;;;;;;;18.10;47.70;99741.47;4965944;29;20051;-91
2022/03/09 06:51:25;;;;;;;1.70;0.90;;;;;;;18.09;48.00;99739.75;4948829;29;20023;-91
2022/03/09 06:53:50;;;;;;;1.27;0.90;;;;;;;18.11;47.90;99743.16;4948321;29;20046;-91
2022/03/09 06:56:20;;;;;;;1.25;0.75;;;;;;;18.08;48.16;99748.59;4948373;29;20090;-92
2022/03/09 06:58:48;;;;;;;1.40;0.82;;;;;;;18.10;47.72;99754.66;4964298;29;20084;-92
2022/03/09 07:01:14;;;;;;;1.92;0.77;;;;;;;18.06;47.96;99756.59;4963737;29;20027;-92
2022/03/09 07:03:42;;;;;;;1.27;0.77;;;;;;;18.08;47.95;99759.16;4947842;29;20027;-92
2022/03/09 07:06:09;;;;;;;1.33;0.65;;;;;;;18.08;47.90;99772.38;4948570;29;20019;-92
2022/03/09 07:08:45;;;;;;;1.00;0.60;;;;;;;18.08;48.02;99770.59;4964203;29;20011;-92
2022/03/09 07:11:12;;;;;;;1.05;0.70;;;;;;;18.08;48.19;99764.44;4948306;29;20521;-92
2022/03/09 07:13:38;;;;;;;1.25;0.80;;;;;;;18.09;47.86;99767.03;4948691;29;20035;-92
2022/03/09 07:16:05;;;;;;;0.82;0.70;;;;;;;18.06;48.13;99774.22;4931609;29;20094;-92
2022/03/09 07:18:31;;;;;;;1.48;0.80;;;;;;;18.08;47.87;99772.38;4963299;29;20038;-92
2022/03/09 07:21:01;;;;;;;1.25;0.85;;;;;;;18.06;48.00;99771.59;4947623;29;20027;-92
2022/03/09 07:23:27;;;;;;;1.30;0.90;;;;;;;18.07;48.09;99774.13;4931127;29;20058;-92
2022/03/09 07:25:53;;;;;;;1.65;1.02;;;;;;;18.07;48.03;99778.59;4930965;29;20015;-91
2022/03/09 07:28:19;;;;;;;1.20;0.90;;;;;;;18.06;47.90;99777.72;4962055;29;20027;-91
2022/03/09 07:30:45;;;;;;;0.95;0.80;;;;;;;18.08;48.11;99775.00;4930881;29;20027;-91
2022/03/09 07:33:12;;;;;;;1.70;0.90;;;;;;;18.06;48.40;99782.16;4963099;29;20027;-91
2022/03/09 07:35:40;;;;;;;1.73;0.88;;;;;;;18.05;48.13;99780.38;4963035;29;20027;-91
2022/03/09 07:38:07;;;;;;;1.35;0.70;;;;;;;18.05;48.30;99772.47;4962416;29;20038;-92
2022/03/09 07:40:33;;;;;;;1.17;0.70;;;;;;;18.05;48.27;99786.53;4962548;29;20023;-91
2022/03/09 07:42:59;;;;;;;1.92;1.10;;;;;;;18.02;48.28;99781.38;4961781;29;20086;-92
2022/03/09 07:45:25;;;;;;;1.65;0.85;;;;;;;18.04;48.17;99789.22;4930973;29;20094;-92
2022/03/09 07:47:51;;;;;;;2.38;1.17;;;;;;;18.05;48.38;99790.94;4945344;29;20035;-92
2022/03/09 07:50:17;;;;;;;1.52;0.90;;;;;;;18.04;48.33;99781.31;4961778;29;20038;-91
2022/03/09 07:52:43;;;;;;;2.42;1.30;;;;;;;18.05;48.31;99783.03;4945654;29;20023;-92
2022/03/09 07:55:09;;;;;;;1.70;1.00;;;;;;;18.05;48.30;99786.53;4929511;29;20093;-92
2022/03/09 07:57:35;;;;;;;1.85;1.02;;;;;;;18.03;48.36;99785.75;4929550;29;20046;-91
2022/03/09 08:00:02;;;;;;;1.75;0.90;;;;;;;18.04;48.48;99795.38;4961343;28;20031;-92
2022/03/09 08:02:29;;;;;;;2.33;1.35;;;;;;;18.02;48.63;99785.81;4945275;29;20023;-91
2022/03/09 08:04:56;;;;;;;1.75;1.00;;;;;;;18.02;48.62;99791.09;4928846;29;20038;-91
2022/03/09 08:07:22;;;;;;;1.92;1.20;;;;;;;18.00;48.44;99793.78;4960466;29;20026;-92
2022/03/09 08:09:49;;;;;;;1.77;1.00;;;;;;;18.02;48.57;99796.38;4960563;29;20448;-90
2022/03/09 08:12:14;;;;;;;1.63;0.93;;;;;;;18.02;48.23;99799.00;4945447;29;20063;-91
2022/03/09 08:14:40;;;;;;;1.75;1.10;;;;;;;18.03;48.20;99798.94;4961214;29;20011;-91
2022/03/09 08:17:06;;;;;;;2.38;1.10;;;;;;;18.04;48.63;99807.72;4943508;29;20036;-92
2022/03/09 08:19:32;;;;;;;1.83;1.15;;;;;;;18.00;48.42;99804.34;4960473;29;20054;-92
2022/03/09 08:21:57;;;;;;;1.83;1.15;;;;;;;18.00;48.27;99809.63;4944754;29;20051;-91
2022/03/09 08:24:24;;;;;;;2.17;1.23;;;;;;;17.98;48.35;99809.69;4945741;29;20112;-91
2022/03/09 08:26:50;;;;;;;2.22;1.10;;;;;;;17.97;48.51;99802.69;4944878;29;20038;-92
2022/03/09 08:29:15;;;;;;;2.25;1.05;;;;;;;17.95;48.67;99796.63;4943942;29;20031;-92
2022/03/09 08:31:41;;;;;;;1.83;1.13;;;;;;;17.95;48.58;99801.91;4960130;29;20054;-92
2022/03/09 08:34:07;;;;;;;2.05;1.17;;;;;;;17.97;48.68;99805.34;4943981;29;20106;-91
2022/03/09 08:36:33;;;;;;;2.08;1.27;;;;;;;17.96;48.60;99798.34;4960740;29;20090;-92
2022/03/09 08:39:00;;;;;;;2.42;1.27;;;;;;;17.96;48.60;99793.06;4929380;29;20038;-92
2022/03/09 08:41:25;;;;;;;1.83;1.40;;;;;;;17.95;48.69;99796.63;4961102;29;20015;-91
2022/03/09 08:43:56;;;;;;;2.22;1.40;;;;;;;17.95;48.55;99796.63;4960102;29;20561;-92
2022/03/09 08:46:22;;;;;;;1.83;1.30;;;;;;;17.96;48.63;99793.06;4944867;29;20027;-91
2022/03/09 08:48:48;;;;;;;2.50;1.60;;;;;;;17.95;48.81;99795.78;4961621;29;20090;-92
2022/03/09 08:51:20;;;;;;;2.75;1.40;;;;;;;17.93;48.56;99798.47;4961211;29;20095;-93
2022/03/09 08:53:46;;;;;;;2.38;1.45;;;;;;;17.94;48.82;99800.22;4959928;29;20027;-91
2022/03/09 08:56:33;;;;;;;2.33;1.60;;;;;;;17.95;48.55;99799.28;4945338;29;20031;-92
2022/03/09 08:58:59;;;;;;;2.17;1.38;;;;;;;17.94;48.94;99802.84;4931060;29;20045;-92
2022/03/09 09:01:25;;;;;;;3.50;1.50;;;;;;;17.95;48.65;99801.03;4944822;29;20039;-91
2022/03/09 09:03:51;;;;;;;2.83;1.63;;;;;;;17.95;48.92;99809.84;4960458;29;20056;-91
2022/03/09 09:06:16;;;;;;;3.28;2.08;;;;;;;17.94;48.77;99813.41;4944783;29;20031;-92
2022/03/09 09:08:42;;;;;;;3.80;1.88;;;;;;;17.95;48.80;99812.47;4959901;29;20037;-91
2022/03/09 09:11:08;;;;;;;3.40;1.85;;;;;;;17.92;48.51;99817.88;4960047;29;20058;-92
2022/03/09 09:13:33;;;;;;;3.65;1.88;;;;;;;17.91;48.64;99813.53;4961228;29;20038;-92
2022/03/09 09:16:00;;;;;;;3.78;2.17;;;;;;;17.91;48.90;99810.88;4945318;29;20035;-93
2022/03/09 09:18:26;;;;;;;3.25;1.90;;;;;;;17.91;48.86;99808.25;4929503;29;20046;-92
2022/03/09 09:21:00;;;;;;;4.10;2.17;;;;;;;17.89;48.98;99807.47;4957811;29;20035;-91
2022/03/09 09:23:41;;;;;;;3.15;2.03;;;;;;;17.92;48.72;99811.75;4978290;28;20062;-93
2022/03/09 09:26:23;;;;;;;3.15;1.80;;;;;;;17.91;48.75;99810.03;4979363;28;20023;-95
2022/03/09 09:28:56;;;;;;;4.07;1.90;;;;;;;17.90;48.81;99814.47;4963846;28;20012;-93
2022/03/09 09:31:32;;;;;;;3.25;1.80;;;;;;;17.88;48.69;99815.44;4934642;28;20062;-94
2022/03/09 09:33:57;;;;;;;3.33;2.25;;;;;;;17.89;48.97;99811.88;4947437;28;20035;-90
2022/03/09 09:36:34;;;;;;;4.22;2.38;;;;;;;17.89;48.69;99818.03;4957730;29;20062;-91
2022/03/09 09:39:08;;;;;;;3.88;2.22;;;;;;;17.89;48.70;99811.88;4978505;28;20008;-91
2022/03/09 09:41:34;;;;;;;3.97;2.22;;;;;;;17.89;48.96;99812.75;4941686;28;20130;-88
2022/03/09 09:44:00;;;;;;;4.30;2.53;;;;;;;17.88;48.79;99803.13;4975948;28;20055;-89
2022/03/09 09:46:26;;;;;;;4.18;2.50;;;;;;;17.87;48.68;99813.72;4958853;28;20049;-88
2022/03/09 09:48:53;;;;;;;5.10;2.53;;;;;;;17.87;48.92;99809.28;4959159;28;20055;-90
2022/03/09 09:51:23;;;;;;;4.60;2.75;;;;;;;17.88;48.83;99802.25;4974593;28;20047;-90
2022/03/09 09:53:50;;;;;;;4.03;2.22;;;;;;;17.89;48.51;99804.81;4970035;28;20058;-94
2022/03/09 09:56:17;;;;;;;4.35;2.65;;;;;;;17.88;48.82;99808.38;4986773;28;20038;-89
2022/03/09 09:58:44;;;;;;;5.13;2.45;;;;;;;17.87;48.88;99804.00;4959735;28;20608;-88
2022/03/09 10:01:11;;;;;;;5.45;2.75;;;;;;;17.88;48.90;99804.88;4959713;28;20027;-91
2022/03/09 10:03:37;;;;;;;3.90;2.60;;;;;;;17.89;48.82;99804.81;4977632;28;20166;-91
2022/03/09 10:06:03;;;;;;;4.25;2.45;;;;;;;17.88;48.96;99805.75;4976788;28;20033;-92
2022/03/09 10:08:35;;;;;;;4.70;2.70;;;;;;;17.89;48.71;99796.91;4981998;28;20043;-94
2022/03/09 10:11:04;;;;;;;4.45;2.65;;;;;;;17.88;48.69;99795.19;4973736;28;20082;-93
2022/03/09 10:13:40;;;;;;;5.22;2.83;;;;;;;17.88;49.18;99789.91;4968923;28;20019;-94
2022/03/09 10:16:20;;;;;;;4.85;3.20;;;;;;;17.87;48.92;99785.53;4963029;28;20035;-90
2022/03/09 10:18:56;;;;;;;5.13;2.80;;;;;;;17.87;49.19;99777.59;4962588;28;20109;-90
2022/03/09 10:21:28;;;;;;;5.32;3.00;;;;;;;17.89;49.17;99770.50;4981362;28;20027;-92
2022/03/09 10:24:03;;;;;;;5.63;3.08;;;;;;;17.90;49.10;99772.22;4964406;28;20042;-90
2022/03/09 10:26:49;;;;;;;6.18;3.65;;;;;;;17.89;49.61;99759.94;4979986;28;20037;-93
2022/03/09 10:29:21;;;;;;;5.47;3.63;;;;;;;17.87;49.50;99750.38;5001001;28;20029;-93
2022/03/09 10:31:49;;;;;;;5.15;3.25;;;;;;;17.89;49.00;99749.38;4976648;28;20054;-92
2022/03/09 10:34:19;;;;;;;5.13;3.50;;;;;;;17.89;49.36;99744.09;4965282;28;20046;-87
2022/03/09 10:37:02;;;;;;;6.80;3.53;;;;;;;17.92;49.29;99746.59;4971601;28;20101;-90
2022/03/09 10:39:34;;;;;;;5.18;3.20;;;;;;;17.93;49.37;99737.75;4981332;28;20026;-90
2022/03/09 10:42:01;;;;;;;5.97;3.33;;;;;;;17.92;49.63;99749.22;4963986;28;20038;-90
2022/03/09 10:44:47;;;;;;;5.47;3.00;;;;;;;17.94;49.41;99752.69;4963475;28;20102;-89
2022/03/09 10:47:32;;;;;;;6.65;3.55;;;;;;;17.96;49.01;99737.63;4981814;28;20480;-90
2022/03/09 10:50:30;;;;;;;5.57;3.25;;;;;;;17.97;49.35;99736.69;4943531;29;20043;-89
2022/03/09 10:53:02;;;;;;;5.18;3.10;;;;;;;17.96;49.22;99734.09;4961839;29;20381;-90
2022/03/09 10:55:31;;;;;;;5.72;3.17;;;;;;;17.96;49.27;99729.69;4943339;29;20030;-90
2022/03/09 10:58:25;;;;;;;6.38;3.47;;;;;;;17.97;49.49;99726.13;4947707;29;20031;-93
2022/03/09 11:00:58;;;;;;;5.07;3.42;;;;;;;17.97;49.53;99723.50;4977343;28;20023;-91
2022/03/09 11:03:34;;;;;;;5.30;3.53;;;;;;;18.00;49.73;99729.59;4949024;28;20091;-93
2022/03/09 11:06:13;;;;;;;5.85;3.80;;;;;;;18.00;49.34;99722.50;4963844;28;20059;-93
2022/03/09 11:08:44;;;;;;;5.05;3.33;;;;;;;18.01;49.21;99720.72;4971158;28;20473;-91
2022/03/09 11:11:26;;;;;;;5.25;3.22;;;;;;;18.05;49.28;99727.56;4976400;29;20038;-92
2022/03/09 11:13:54;;;;;;;5.28;3.60;;;;;;;18.04;49.21;99724.09;4973208;29;20039;-91
2022/03/09 11:16:19;;;;;;;4.78;3.08;;;;;;;18.07;49.07;99728.41;4954963;29;20091;-91
2022/03/09 11:18:47;;;;;;;5.68;3.70;;;;;;;18.08;49.39;99724.84;4978972;28;20015;-94
2022/03/09 11:21:17;;;;;;;4.85;3.08;;;;;;;18.07;49.23;99731.06;4960928;28;20075;-92
2022/03/09 11:23:43;;;;;;;5.35;3.63;;;;;;;18.08;49.44;99716.91;4961368;29;20010;-92
2022/03/09 11:26:24;;;;;;;5.93;4.05;;;;;;;18.09;49.52;99723.91;4961982;28;20031;-92
2022/03/09 11:39:45;;;;;;;5.40;3.53;;;;;;;18.13;49.44;99720.22;4981733;28;20029;-95
2022/03/09 11:42:33;;;;;;;5.82;3.40;;;;;;;18.17;49.38;99716.50;4981240;28;20027;-93
2022/03/09 11:45:32;;;;;;;5.03;3.20;;;;;;;18.18;49.37;99714.72;4980893;28;20023;-95
2022/03/09 11:48:17;;;;;;;5.37;3.63;;;;;;;18.18;49.44;99712.94;4951297;28;20055;-92
2022/03/09 11:51:12;;;;;;;5.13;3.30;;;;;;;18.18;49.63;99702.38;4999783;28;20043;-93
2022/03/09 11:53:49;;;;;;;;;;;;;;;18.22;49.36;99698.66;4999931;28;20034;-94